createdAt,value
2022-11-24T00:01:33.143Z,2.75
2022-11-24T00:03:34.940Z,2.70
2022-11-24T00:05:38.384Z,3.15
2022-11-24T00:07:39.845Z,2.65
2022-11-24T00:09:41.348Z,2.83
2022-11-24T00:11:42.796Z,2.72
2022-11-24T00:13:44.760Z,3.10
2022-11-24T00:15:46.180Z,2.92
2022-11-24T00:17:47.696Z,2.70
2022-11-24T00:19:49.117Z,2.38
2022-11-24T00:21:50.549Z,2.45
2022-11-24T00:23:52.359Z,2.85
2022-11-24T00:25:53.814Z,2.28
2022-11-24T00:27:55.199Z,3.55
2022-11-24T00:29:57.601Z,2.40
2022-11-24T00:31:59.127Z,3.22
2022-11-24T00:34:03.684Z,3.00
2022-11-24T00:36:05.444Z,2.35
2022-11-24T00:38:06.879Z,2.88
2022-11-24T00:40:08.747Z,2.20
2022-11-24T00:42:10.209Z,2.83
2022-11-24T00:44:11.656Z,2.20
2022-11-24T00:46:13.477Z,2.60
2022-11-24T00:48:15.376Z,2.70
2022-11-24T00:50:16.869Z,2.17
2022-11-24T00:52:18.275Z,1.70
2022-11-24T00:54:19.757Z,2.72
2022-11-24T00:56:21.248Z,2.22
2022-11-24T00:58:23.982Z,2.15
2022-11-24T01:00:26.363Z,2.55
2022-11-24T01:02:27.816Z,2.63
2022-11-24T01:04:29.212Z,2.58
2022-11-24T01:06:32.312Z,2.20
2022-11-24T01:08:34.363Z,3.20
2022-11-24T01:10:36.058Z,2.58
2022-11-24T01:12:37.556Z,2.42
2022-11-24T01:14:39.208Z,2.55
2022-11-24T01:16:40.621Z,2.70
2022-11-24T01:18:42.382Z,2.15
2022-11-24T01:20:43.804Z,2.55
2022-11-24T01:22:48.339Z,2.20
2022-11-24T01:24:49.771Z,2.30
2022-11-24T01:26:51.437Z,2.13
2022-11-24T01:28:55.000Z,2.00
2022-11-24T01:30:58.128Z,1.63
2022-11-24T01:32:59.627Z,2.47
2022-11-24T01:35:01.046Z,2.40
2022-11-24T01:37:02.463Z,2.70
2022-11-24T01:39:03.995Z,2.35
2022-11-24T01:41:14.159Z,2.35
2022-11-24T01:43:21.253Z,2.15
2022-11-24T01:45:41.945Z,2.30
2022-11-24T01:47:43.501Z,1.95
2022-11-24T01:49:48.686Z,2.53
2022-11-24T01:52:13.066Z,2.42
2022-11-24T01:54:20.181Z,2.22
2022-11-24T01:56:21.700Z,2.60
2022-11-24T01:58:27.648Z,2.45
2022-11-24T02:00:29.191Z,2.33
2022-11-24T02:02:30.817Z,2.20
2022-11-24T02:04:34.496Z,3.05
2022-11-24T02:06:38.591Z,2.38
2022-11-24T02:08:57.221Z,2.45
2022-11-24T02:11:00.829Z,2.05
2022-11-24T02:13:03.380Z,3.20
2022-11-24T02:15:05.328Z,2.45
2022-11-24T02:17:06.888Z,2.80
2022-11-24T02:19:22.055Z,2.60
2022-11-24T02:21:23.732Z,2.85
2022-11-24T02:23:39.639Z,2.72
2022-11-24T02:25:47.076Z,2.22
2022-11-24T02:27:53.653Z,2.55
2022-11-24T02:29:55.629Z,2.08
2022-11-24T02:32:01.257Z,2.05
2022-11-24T02:34:02.753Z,1.92
2022-11-24T02:36:04.286Z,2.63
2022-11-24T02:38:06.070Z,1.90
2022-11-24T02:40:09.934Z,2.78
2022-11-24T02:42:13.606Z,2.17
2022-11-24T02:44:17.464Z,2.42
2022-11-24T02:46:18.949Z,2.08
2022-11-24T02:48:20.508Z,2.20
2022-11-24T02:50:21.917Z,2.33
2022-11-24T02:52:23.350Z,1.80
2022-11-24T02:54:24.811Z,2.25
2022-11-24T02:56:27.183Z,2.30
2022-11-24T02:58:28.671Z,2.28
2022-11-24T03:00:30.353Z,2.60
2022-11-24T03:02:32.107Z,2.20
2022-11-24T03:04:33.937Z,2.53
2022-11-24T03:06:35.700Z,2.13
2022-11-24T03:08:37.084Z,1.80
2022-11-24T03:10:39.000Z,2.10
2022-11-24T03:12:40.448Z,2.20
2022-11-24T03:14:41.869Z,2.10
2022-11-24T03:16:43.309Z,2.00
2022-11-24T03:18:44.743Z,2.35
2022-11-24T03:20:46.172Z,2.20
2022-11-24T03:22:47.748Z,1.60
2022-11-24T03:24:49.212Z,2.00
2022-11-24T03:27:15.962Z,2.15
2022-11-24T03:29:17.412Z,2.15
2022-11-24T03:31:18.885Z,2.58
2022-11-24T03:33:20.340Z,2.63
2022-11-24T03:35:22.163Z,2.08
2022-11-24T03:37:23.912Z,1.95
2022-11-24T03:39:25.455Z,2.50
2022-11-24T03:41:26.863Z,2.83
2022-11-24T03:43:28.384Z,2.13
2022-11-24T03:45:45.318Z,1.60
2022-11-24T03:47:51.526Z,2.92
2022-11-24T03:49:52.926Z,2.53
2022-11-24T03:51:54.355Z,2.05
2022-11-24T03:53:55.735Z,2.78
2022-11-24T03:55:57.721Z,2.05
2022-11-24T03:57:59.149Z,2.75
2022-11-24T04:00:00.533Z,1.63
2022-11-24T04:02:02.057Z,2.55
2022-11-24T04:04:06.006Z,2.45
2022-11-24T04:06:07.418Z,1.95
2022-11-24T04:08:09.306Z,1.83
2022-11-24T04:10:10.785Z,1.98
2022-11-24T04:12:31.124Z,2.17
2022-11-24T04:14:32.940Z,2.28
2022-11-24T04:16:34.643Z,2.28
2022-11-24T04:18:36.034Z,2.50
2022-11-24T04:20:37.533Z,2.35
2022-11-24T04:22:39.709Z,2.00
2022-11-24T04:24:41.150Z,1.80
2022-11-24T04:26:42.535Z,1.60
2022-11-24T04:28:43.891Z,1.80
2022-11-24T04:30:45.482Z,1.88
2022-11-24T04:32:47.286Z,2.47
2022-11-24T04:34:48.653Z,2.00
2022-11-24T04:36:49.993Z,2.30
2022-11-24T04:39:23.941Z,2.20
2022-11-24T04:41:15.187Z,1.77
2022-11-24T04:43:18.607Z,3.33
2022-11-24T04:45:19.970Z,1.83
2022-11-24T04:47:24.281Z,2.20
2022-11-24T04:49:25.627Z,1.73
2022-11-24T04:51:27.239Z,2.72
2022-11-24T04:53:28.593Z,2.10
2022-11-24T04:55:29.983Z,1.92
2022-11-24T04:57:31.355Z,2.17
2022-11-24T04:59:32.778Z,2.05
2022-11-24T05:01:34.298Z,2.40
2022-11-24T05:03:36.764Z,2.50
2022-11-24T05:05:38.119Z,2.72
2022-11-24T05:07:39.705Z,2.63
2022-11-24T05:10:00.004Z,2.15
2022-11-24T05:12:01.418Z,2.22
2022-11-24T05:14:02.889Z,2.22
2022-11-24T05:16:04.712Z,2.35
2022-11-24T05:18:08.373Z,2.20
2022-11-24T05:20:09.892Z,2.85
2022-11-24T05:22:11.243Z,2.28
2022-11-24T05:24:12.707Z,1.92
2022-11-24T05:26:14.314Z,2.55
2022-11-24T05:28:16.120Z,3.22
2022-11-24T05:30:17.562Z,2.60
2022-11-24T05:32:18.995Z,2.55
2022-11-24T05:34:20.345Z,2.72
2022-11-24T05:36:40.194Z,2.30
2022-11-24T05:38:41.720Z,2.80
2022-11-24T05:40:43.382Z,2.28
2022-11-24T05:42:47.843Z,2.63
2022-11-24T05:44:49.687Z,2.53
2022-11-24T05:46:51.971Z,2.83
2022-11-24T05:48:53.408Z,3.13
2022-11-24T05:50:58.341Z,2.45
2022-11-24T05:53:08.175Z,2.22
2022-11-24T05:55:10.802Z,2.30
2022-11-24T05:57:13.081Z,2.67
2022-11-24T05:59:14.411Z,2.17
2022-11-24T06:01:15.773Z,2.47
2022-11-24T06:03:17.199Z,2.53
2022-11-24T06:05:18.625Z,3.85
2022-11-24T06:07:20.115Z,2.55
2022-11-24T06:09:21.544Z,2.50
2022-11-24T06:11:22.971Z,2.45
2022-11-24T06:13:24.349Z,2.42
2022-11-24T06:15:26.001Z,2.47
2022-11-24T06:17:27.872Z,2.50
2022-11-24T06:19:29.232Z,2.58
2022-11-24T06:21:30.846Z,2.92
2022-11-24T06:23:32.491Z,2.35
2022-11-24T06:25:33.885Z,2.45
2022-11-24T06:27:35.817Z,2.90
2022-11-24T06:29:37.176Z,2.40
2022-11-24T06:31:40.374Z,1.90
2022-11-24T06:33:41.922Z,3.10
2022-11-24T06:35:43.282Z,3.10
2022-11-24T06:37:45.830Z,3.05
2022-11-24T06:39:47.253Z,2.90
2022-11-24T06:41:52.397Z,3.90
2022-11-24T06:43:54.068Z,2.72
2022-11-24T06:45:56.320Z,2.58
2022-11-24T06:47:57.735Z,2.38
2022-11-24T06:49:59.449Z,2.95
2022-11-24T06:52:00.838Z,2.70
2022-11-24T06:54:02.365Z,2.75
2022-11-24T06:56:15.215Z,3.47
2022-11-24T06:58:17.445Z,2.15
2022-11-24T07:00:19.152Z,2.83
2022-11-24T07:02:20.552Z,2.50
2022-11-24T07:04:21.921Z,2.22
2022-11-24T07:06:25.208Z,2.80
2022-11-24T07:08:28.190Z,2.75
2022-11-24T07:10:29.621Z,2.70
2022-11-24T07:12:35.063Z,3.10
2022-11-24T07:14:36.820Z,4.35
2022-11-24T07:16:38.983Z,2.92
2022-11-24T07:18:40.498Z,2.40
2022-11-24T07:20:41.892Z,2.53
2022-11-24T07:22:43.235Z,2.83
2022-11-24T07:24:44.578Z,2.78
2022-11-24T07:26:45.965Z,2.63
2022-11-24T07:28:47.674Z,2.53
2022-11-24T07:30:49.108Z,2.97
2022-11-24T07:32:50.644Z,2.55
2022-11-24T07:34:52.000Z,2.53
2022-11-24T07:36:53.444Z,2.67
2022-11-24T07:38:54.857Z,2.60
2022-11-24T07:41:03.667Z,2.80
2022-11-24T07:43:05.062Z,2.17
2022-11-24T07:45:07.000Z,2.22
2022-11-24T07:47:08.367Z,2.35
2022-11-24T07:49:09.711Z,1.95
2022-11-24T07:51:11.169Z,2.53
2022-11-24T07:53:12.538Z,2.20
2022-11-24T07:55:14.109Z,1.98
2022-11-24T07:57:15.645Z,1.80
2022-11-24T07:59:17.011Z,2.60
2022-11-24T08:01:18.840Z,1.95
2022-11-24T08:03:20.346Z,1.85
2022-11-24T08:05:21.781Z,2.25
2022-11-24T08:07:23.409Z,2.22
2022-11-24T08:09:24.799Z,1.90
2022-11-24T08:11:26.342Z,2.42
2022-11-24T08:13:27.695Z,1.95
2022-11-24T08:15:29.069Z,3.15
2022-11-24T08:17:30.524Z,1.50
2022-11-24T08:19:32.346Z,1.80
2022-11-24T08:21:33.751Z,1.55
2022-11-24T08:23:35.226Z,1.63
2022-11-24T08:25:36.965Z,1.73
2022-11-24T08:27:40.006Z,1.60
2022-11-24T08:29:42.092Z,1.60
2022-11-24T08:31:43.634Z,1.38
2022-11-24T08:33:45.088Z,1.60
2022-11-24T08:35:46.498Z,1.50
2022-11-24T08:37:47.886Z,1.60
2022-11-24T08:39:49.262Z,1.05
2022-11-24T08:41:50.659Z,1.40
2022-11-24T08:43:52.097Z,1.33
2022-11-24T08:45:53.748Z,1.10
2022-11-24T08:47:56.558Z,1.33
2022-11-24T08:49:58.000Z,1.67
2022-11-24T08:51:59.427Z,1.08
2022-11-24T08:54:01.955Z,1.50
2022-11-24T08:56:04.143Z,1.15
2022-11-24T08:58:05.496Z,1.33
2022-11-24T09:00:07.589Z,1.30
2022-11-24T09:02:13.164Z,1.17
2022-11-24T09:04:40.563Z,1.00
2022-11-24T09:06:41.994Z,1.17
2022-11-24T09:08:43.350Z,0.75
2022-11-24T09:10:44.726Z,1.90
2022-11-24T09:12:47.074Z,1.27
2022-11-24T09:14:48.451Z,1.58
2022-11-24T09:16:49.893Z,1.92
2022-11-24T09:18:59.907Z,1.40
2022-11-24T09:21:08.505Z,1.42
2022-11-24T09:23:09.881Z,1.20
2022-11-24T09:25:11.269Z,1.65
2022-11-24T09:27:12.670Z,1.35
2022-11-24T09:29:14.294Z,1.80
2022-11-24T09:31:18.782Z,1.58
2022-11-24T09:33:20.181Z,1.90
2022-11-24T09:35:21.592Z,1.65
2022-11-24T09:37:25.899Z,1.20
2022-11-24T09:39:29.524Z,1.50
2022-11-24T09:41:45.944Z,1.58
2022-11-24T09:44:08.634Z,1.50
2022-11-24T09:46:47.273Z,1.60
2022-11-24T09:48:54.829Z,1.50
2022-11-24T09:51:01.321Z,1.48
2022-11-24T09:53:17.012Z,1.40
2022-11-24T09:55:29.284Z,1.95
2022-11-24T09:57:37.746Z,1.55
2022-11-24T09:59:41.613Z,1.75
2022-11-24T10:01:45.173Z,2.20
2022-11-24T10:03:51.311Z,1.65
2022-11-24T10:05:53.344Z,1.50
2022-11-24T10:08:21.194Z,1.25
2022-11-24T10:10:48.569Z,1.45
2022-11-24T10:12:55.452Z,2.25
2022-11-24T10:18:16.408Z,1.63
2022-11-24T10:20:27.132Z,1.77
2022-11-24T10:23:03.675Z,1.83
2022-11-24T10:25:30.626Z,2.08
2022-11-24T10:27:40.062Z,2.10
2022-11-24T10:29:42.977Z,2.55
2022-11-24T10:31:45.907Z,1.73
2022-11-24T10:33:48.027Z,1.80
2022-11-24T10:35:52.619Z,2.40
2022-11-24T10:38:02.145Z,2.40
2022-11-24T10:40:26.899Z,1.83
2022-11-24T10:42:38.536Z,1.92
2022-11-24T10:44:41.939Z,1.92
2022-11-24T10:46:43.667Z,2.20
2022-11-24T10:48:52.981Z,2.70
2022-11-24T10:51:24.522Z,2.22
2022-11-24T10:53:30.125Z,1.70
2022-11-24T10:55:54.867Z,1.45
2022-11-24T10:58:15.131Z,1.88
2022-11-24T11:00:19.709Z,2.60
2022-11-24T11:02:37.320Z,2.92
2022-11-24T11:04:38.741Z,1.70
2022-11-24T11:06:40.460Z,2.30
2022-11-24T11:08:41.858Z,1.80
2022-11-24T11:10:44.849Z,2.70
2022-11-24T11:12:46.581Z,2.08
2022-11-24T11:14:48.369Z,2.25
2022-11-24T11:16:53.268Z,2.72
2022-11-24T11:18:54.816Z,2.17
2022-11-24T11:20:58.140Z,2.17
2022-11-24T11:23:13.197Z,2.22
2022-11-24T11:25:18.626Z,1.80
2022-11-24T11:27:23.474Z,2.08
2022-11-24T11:34:41.632Z,2.15
2022-11-24T11:36:49.298Z,1.70
2022-11-24T11:38:50.747Z,2.20
2022-11-24T11:40:52.349Z,1.73
2022-11-24T11:43:06.762Z,1.90
2022-11-24T11:45:16.247Z,1.73
2022-11-24T11:47:22.563Z,2.22
2022-11-24T11:49:24.464Z,1.45
2022-11-24T11:51:32.047Z,2.00
2022-11-24T11:53:46.364Z,1.70
2022-11-24T11:56:17.043Z,1.52
2022-11-24T11:58:44.813Z,1.00
2022-11-24T12:01:15.267Z,1.45
2022-11-24T12:03:26.616Z,2.00
2022-11-24T12:05:34.749Z,1.90
2022-11-24T12:07:53.783Z,1.60
2022-11-24T12:10:04.080Z,1.60
2022-11-24T12:12:45.149Z,2.20
2022-11-24T12:15:34.120Z,2.13
2022-11-24T12:17:46.861Z,1.70
2022-11-24T12:19:57.391Z,1.55
2022-11-24T12:22:17.526Z,2.30
2022-11-24T12:24:35.110Z,1.42
2022-11-24T12:26:48.451Z,1.67
2022-11-24T12:29:04.859Z,1.65
2022-11-24T12:31:08.453Z,1.92
2022-11-24T12:33:30.123Z,1.42
2022-11-24T12:35:46.164Z,2.03
2022-11-24T12:38:09.168Z,2.15
2022-11-24T12:40:40.895Z,1.63
2022-11-24T12:43:16.626Z,1.88
2022-11-24T12:45:28.330Z,2.05
2022-11-24T12:47:56.207Z,1.77
2022-11-24T12:50:02.723Z,1.92
2022-11-24T12:52:23.173Z,2.42
2022-11-24T12:54:25.644Z,1.40
2022-11-24T12:56:38.085Z,1.77
2022-11-24T12:58:50.601Z,1.98
2022-11-24T13:01:18.435Z,1.45
2022-11-24T13:03:43.443Z,1.63
2022-11-24T13:06:00.772Z,1.80
2022-11-24T13:08:04.444Z,2.03
2022-11-24T13:10:53.620Z,1.40
2022-11-24T13:13:37.056Z,2.33
2022-11-24T13:18:46.647Z,1.92
2022-11-24T13:20:48.161Z,1.60
2022-11-24T13:23:03.842Z,1.98
2022-11-24T13:25:46.356Z,1.88
2022-11-24T13:27:53.496Z,1.92
2022-11-24T13:29:55.270Z,1.85
2022-11-24T13:32:02.322Z,1.65
2022-11-24T13:34:38.624Z,1.73
2022-11-24T13:36:53.123Z,1.63
2022-11-24T13:38:54.651Z,1.45
2022-11-24T13:41:13.386Z,1.50
2022-11-24T13:43:17.388Z,1.85
2022-11-24T13:45:44.917Z,1.73
2022-11-24T13:47:46.852Z,2.03
2022-11-24T13:49:50.103Z,2.05
2022-11-24T13:52:35.992Z,1.83
2022-11-24T13:54:41.457Z,1.48
2022-11-24T13:56:42.917Z,1.88
2022-11-24T13:58:57.867Z,1.45
2022-11-24T14:01:02.064Z,1.55
2022-11-24T14:03:06.693Z,1.95
2022-11-24T14:05:14.130Z,2.25
2022-11-24T14:07:16.785Z,3.05
2022-11-24T14:09:35.141Z,1.52
2022-11-24T14:11:36.773Z,1.77
2022-11-24T14:13:38.221Z,2.10
2022-11-24T14:15:39.820Z,1.50
2022-11-24T14:17:41.438Z,2.30
2022-11-24T14:19:48.132Z,2.08
2022-11-24T14:21:49.624Z,2.28
2022-11-24T14:24:03.343Z,2.08
2022-11-24T14:26:04.829Z,1.55
2022-11-24T14:28:22.291Z,1.92
2022-11-24T14:30:25.176Z,1.75
2022-11-24T14:32:27.458Z,2.13
2022-11-24T14:34:35.672Z,2.05
2022-11-24T14:36:38.235Z,2.03
2022-11-24T14:38:39.624Z,1.88
2022-11-24T14:40:50.582Z,2.30
2022-11-24T14:42:52.004Z,1.95
2022-11-24T14:44:59.374Z,1.85
2022-11-24T14:47:06.896Z,1.33
2022-11-24T14:49:08.994Z,2.08
2022-11-24T14:51:10.335Z,1.80
2022-11-24T14:53:15.336Z,2.28
2022-11-24T14:55:29.308Z,2.05
2022-11-24T14:57:36.242Z,2.03
2022-11-24T14:59:38.202Z,2.03
2022-11-24T15:01:39.837Z,2.25
2022-11-24T15:03:41.299Z,1.83
2022-11-24T15:05:55.691Z,1.90
2022-11-24T15:08:02.934Z,1.77
2022-11-24T15:10:06.886Z,2.42
2022-11-24T15:12:19.595Z,2.17
2022-11-24T15:14:44.057Z,2.15
2022-11-24T15:16:45.617Z,2.10
2022-11-24T15:18:48.924Z,1.60
2022-11-24T15:20:50.357Z,1.95
2022-11-24T15:23:23.741Z,2.45
2022-11-24T15:25:33.887Z,1.88
2022-11-24T15:27:35.250Z,2.72
2022-11-24T15:29:36.621Z,4.28
2022-11-24T15:31:45.135Z,3.45
2022-11-24T15:33:49.217Z,5.32
2022-11-24T15:35:50.612Z,8.57
2022-11-24T15:37:52.307Z,9.88
2022-11-24T15:39:53.651Z,11.65
2022-11-24T15:41:55.006Z,9.65
2022-11-24T15:43:59.268Z,8.85
2022-11-24T15:46:01.963Z,7.40
2022-11-24T15:48:03.400Z,6.45
2022-11-24T15:50:05.447Z,5.53
2022-11-24T15:52:07.012Z,5.07
2022-11-24T15:54:13.575Z,5.13
2022-11-24T15:56:23.232Z,4.70
2022-11-24T15:58:25.040Z,4.18
2022-11-24T16:00:26.453Z,3.88
2022-11-24T16:02:28.572Z,3.40
2022-11-24T16:04:30.115Z,2.80
2022-11-24T16:06:31.720Z,3.08
2022-11-24T16:08:33.153Z,2.72
2022-11-24T16:10:36.482Z,2.92
2022-11-24T16:12:37.878Z,2.65
2022-11-24T16:14:39.489Z,2.60
2022-11-24T16:16:41.360Z,3.50
2022-11-24T16:18:44.988Z,2.53
2022-11-24T16:20:46.413Z,3.15
2022-11-24T16:22:48.028Z,3.10
2022-11-24T16:24:49.453Z,3.95
2022-11-24T16:26:50.857Z,2.83
2022-11-24T16:28:52.416Z,3.38
2022-11-24T16:30:53.762Z,3.75
2022-11-24T16:32:55.269Z,3.30
2022-11-24T16:34:56.869Z,3.88
2022-11-24T16:36:58.409Z,3.20
2022-11-24T16:39:00.336Z,3.13
2022-11-24T16:43:28.964Z,2.92
2022-11-24T16:45:30.384Z,3.10
2022-11-24T16:47:31.870Z,4.00
2022-11-24T16:49:33.268Z,3.55
2022-11-24T16:51:35.387Z,3.17
2022-11-24T16:53:37.408Z,3.75
2022-11-24T16:55:38.748Z,3.40
2022-11-24T16:57:40.130Z,3.78
2022-11-24T16:59:43.267Z,3.67
2022-11-24T17:01:46.592Z,2.97
2022-11-24T17:03:48.281Z,3.78
2022-11-24T17:06:02.214Z,3.33
2022-11-24T17:08:03.634Z,3.72
2022-11-24T17:10:06.839Z,4.03
2022-11-24T17:12:08.284Z,3.05
2022-11-24T17:14:10.689Z,3.63
2022-11-24T17:16:15.554Z,3.65
2022-11-24T17:18:24.373Z,2.65
2022-11-24T17:20:26.510Z,3.05
2022-11-24T17:22:27.925Z,3.55
2022-11-24T17:24:29.389Z,3.47
2022-11-24T17:26:31.846Z,3.22
2022-11-24T17:28:34.479Z,2.75
2022-11-24T17:30:36.893Z,3.28
2022-11-24T17:32:38.305Z,3.42
2022-11-24T17:34:39.716Z,4.22
2022-11-24T17:36:41.933Z,3.17
2022-11-24T17:38:43.397Z,3.17
2022-11-24T17:40:48.227Z,2.78
2022-11-24T17:42:49.653Z,3.58
2022-11-24T17:45:16.287Z,3.05
2022-11-24T17:47:17.985Z,4.28
2022-11-24T17:49:21.029Z,3.08
2022-11-24T17:51:24.519Z,3.85
2022-11-24T17:53:26.517Z,3.47
2022-11-24T17:55:27.930Z,3.10
2022-11-24T17:57:29.419Z,2.83
2022-11-24T17:59:30.786Z,3.50
2022-11-24T18:01:33.058Z,3.95
2022-11-24T18:03:34.786Z,3.70
2022-11-24T18:05:36.844Z,3.72
2022-11-24T18:07:38.294Z,3.30
2022-11-24T18:09:39.674Z,4.30
2022-11-24T18:11:41.057Z,3.60
2022-11-24T18:14:01.028Z,3.95
2022-11-24T18:16:05.373Z,3.42
2022-11-24T18:18:06.785Z,3.70
2022-11-24T18:20:08.593Z,3.63
2022-11-24T18:22:10.028Z,4.15
2022-11-24T18:24:12.888Z,3.58
2022-11-24T18:26:15.905Z,3.75
2022-11-24T18:28:17.273Z,3.53
2022-11-24T18:30:18.656Z,4.35
2022-11-24T18:32:20.083Z,3.78
2022-11-24T18:34:24.585Z,3.00
2022-11-24T18:36:30.388Z,3.50
2022-11-24T18:38:32.684Z,3.35
2022-11-24T18:40:38.688Z,3.03
2022-11-24T18:42:40.108Z,2.75
2022-11-24T18:44:42.316Z,3.08
2022-11-24T18:46:43.758Z,2.85
2022-11-24T18:48:45.735Z,2.92
2022-11-24T18:50:51.970Z,2.25
2022-11-24T18:52:53.395Z,2.95
2022-11-24T18:54:54.801Z,3.20
2022-11-24T18:57:00.292Z,2.45
2022-11-24T18:59:04.397Z,2.38
2022-11-24T19:01:17.335Z,2.83
2022-11-24T19:03:18.778Z,2.03
2022-11-24T19:05:20.493Z,2.65
2022-11-24T19:07:22.092Z,2.47
2022-11-24T19:09:25.359Z,2.60
2022-11-24T19:11:29.423Z,2.85
2022-11-24T19:13:30.796Z,2.10
2022-11-24T19:15:35.361Z,2.67
2022-11-24T19:17:36.757Z,2.22
2022-11-24T19:19:39.600Z,2.75
2022-11-24T19:21:41.263Z,2.05
2022-11-24T19:23:42.668Z,2.38
2022-11-24T19:25:44.685Z,2.05
2022-11-24T19:27:46.050Z,2.25
2022-11-24T19:29:47.974Z,2.47
2022-11-24T19:31:49.433Z,2.42
2022-11-24T19:33:56.504Z,2.50
2022-11-24T19:38:06.763Z,2.97
2022-11-24T19:40:08.981Z,2.45
2022-11-24T19:42:10.329Z,2.33
2022-11-24T19:44:12.344Z,2.63
2022-11-24T19:46:18.333Z,2.30
2022-11-24T19:48:19.870Z,2.90
2022-11-24T19:50:21.300Z,2.85
2022-11-24T19:52:23.271Z,3.13
2022-11-24T19:54:24.649Z,2.65
2022-11-24T19:56:28.745Z,2.30
2022-11-24T19:58:30.305Z,2.20
2022-11-24T20:00:32.201Z,3.00
2022-11-24T20:02:33.830Z,2.28
2022-11-24T20:04:38.284Z,2.70
2022-11-24T20:06:43.239Z,2.47
2022-11-24T20:08:45.299Z,3.00
2022-11-24T20:10:46.639Z,2.65
2022-11-24T20:12:48.016Z,2.67
2022-11-24T20:14:49.434Z,3.22
2022-11-24T20:16:50.857Z,2.63
2022-11-24T20:18:54.279Z,1.95
2022-11-24T20:21:01.730Z,2.72
2022-11-24T20:23:03.380Z,2.42
2022-11-24T20:25:05.105Z,3.08
2022-11-24T20:27:06.762Z,2.13
2022-11-24T20:29:11.954Z,2.55
2022-11-24T20:31:15.923Z,2.15
2022-11-24T20:33:17.411Z,2.35
2022-11-24T20:35:18.906Z,2.75
2022-11-24T20:37:20.292Z,2.78
2022-11-24T20:39:25.360Z,2.33
2022-11-24T20:41:29.820Z,2.28
2022-11-24T20:43:31.972Z,2.72
2022-11-24T20:45:36.623Z,2.35
2022-11-24T20:47:38.027Z,2.95
2022-11-24T20:49:39.491Z,2.08
2022-11-24T20:51:47.362Z,2.05
2022-11-24T20:53:50.327Z,2.42
2022-11-24T20:55:51.675Z,2.92
2022-11-24T20:57:53.024Z,2.47
2022-11-24T20:59:54.408Z,2.53
2022-11-24T21:01:55.905Z,2.63
2022-11-24T21:03:59.358Z,2.90
2022-11-24T21:06:01.035Z,2.40
2022-11-24T21:08:02.438Z,2.40
2022-11-24T21:10:04.169Z,2.53
2022-11-24T21:12:05.788Z,2.15
2022-11-24T21:14:08.253Z,2.28
2022-11-24T21:16:37.394Z,3.58
2022-11-24T21:18:38.863Z,3.20
2022-11-24T21:20:40.563Z,2.72
2022-11-24T21:22:41.922Z,3.35
2022-11-24T21:24:43.305Z,2.97
2022-11-24T21:26:51.623Z,2.30
2022-11-24T21:28:52.958Z,2.15
2022-11-24T21:30:54.857Z,2.88
2022-11-24T21:32:56.224Z,3.13
2022-11-24T21:34:57.680Z,2.97
2022-11-24T21:36:59.036Z,2.92
2022-11-24T21:39:01.773Z,2.45
2022-11-24T21:41:05.787Z,3.50
2022-11-24T21:43:07.150Z,2.58
2022-11-24T21:45:11.463Z,2.20
2022-11-24T21:47:12.930Z,2.42
2022-11-24T21:49:14.330Z,2.67
2022-11-24T21:51:17.860Z,2.55
2022-11-24T21:53:19.278Z,2.60
2022-11-24T21:55:20.610Z,2.80
2022-11-24T21:57:23.064Z,2.45
2022-11-24T21:59:24.544Z,2.58
2022-11-24T22:01:28.091Z,2.42
2022-11-24T22:03:29.645Z,2.45
2022-11-24T22:05:31.011Z,2.35
2022-11-24T22:07:32.685Z,2.22
2022-11-24T22:09:34.455Z,2.60
2022-11-24T22:11:35.810Z,2.30
2022-11-24T22:13:37.406Z,2.75
2022-11-24T22:15:38.804Z,2.28
2022-11-24T22:17:41.270Z,2.55
2022-11-24T22:19:42.624Z,2.22
2022-11-24T22:21:44.801Z,2.53
2022-11-24T22:23:46.311Z,2.33
2022-11-24T22:25:47.639Z,2.08
2022-11-24T22:27:49.997Z,2.40
2022-11-24T22:29:54.253Z,2.05
2022-11-24T22:31:55.816Z,1.90
2022-11-24T22:33:58.488Z,2.30
2022-11-24T22:36:00.936Z,2.35
2022-11-24T22:38:02.335Z,2.50
2022-11-24T22:40:03.977Z,2.35
2022-11-24T22:42:07.281Z,2.35
2022-11-24T22:44:08.741Z,2.97
2022-11-24T22:46:21.690Z,2.00
2022-11-24T22:48:23.244Z,2.40
2022-11-24T22:50:24.606Z,2.88
2022-11-24T22:52:25.960Z,2.20
2022-11-24T22:54:27.330Z,2.35
2022-11-24T22:56:30.273Z,2.70
2022-11-24T22:58:32.843Z,2.67
2022-11-24T23:00:34.230Z,2.08
2022-11-24T23:02:35.664Z,1.42
2022-11-24T23:04:37.488Z,2.00
2022-11-24T23:06:39.027Z,2.63
2022-11-24T23:08:40.472Z,2.22
2022-11-24T23:10:41.819Z,2.42
2022-11-24T23:12:43.181Z,2.50
2022-11-24T23:14:44.550Z,2.00
2022-11-24T23:16:45.954Z,1.98
2022-11-24T23:18:52.402Z,2.17
2022-11-24T23:20:55.331Z,2.20
2022-11-24T23:22:57.118Z,2.40
2022-11-24T23:24:58.474Z,2.22
2022-11-24T23:26:59.840Z,1.80
2022-11-24T23:29:01.564Z,1.80
2022-11-24T23:33:35.258Z,2.10
2022-11-24T23:35:36.587Z,2.55
2022-11-24T23:37:59.707Z,1.60
2022-11-24T23:39:59.336Z,2.45
2022-11-24T23:42:00.747Z,2.38
2022-11-24T23:44:02.202Z,2.10
2022-11-24T23:46:04.787Z,2.10
2022-11-24T23:48:08.672Z,2.75
2022-11-24T23:50:10.219Z,1.90
2022-11-24T23:52:11.645Z,2.10
2022-11-24T23:54:13.095Z,2.10
2022-11-24T23:56:17.656Z,2.65
2022-11-24T23:58:19.018Z,2.03
